sensor_id;sensor_type;location;lat;lon;timestamp;temperature;humidity
19734;DHT22;10018;51.230;7.860;2022-09-28T00:00:19;8.60;99.90
19734;DHT22;10018;51.230;7.860;2022-09-28T00:02:45;8.60;99.90
19734;DHT22;10018;51.230;7.860;2022-09-28T00:05:10;8.60;99.90
19734;DHT22;10018;51.230;7.860;2022-09-28T00:07:37;8.60;99.90
19734;DHT22;10018;51.230;7.860;2022-09-28T00:10:02;8.60;99.90
19734;DHT22;10018;51.230;7.860;2022-09-28T00:12:28;8.70;99.90
19734;DHT22;10018;51.230;7.860;2022-09-28T00:14:55;8.60;99.90
19734;DHT22;10018;51.230;7.860;2022-09-28T00:17:20;8.60;99.90
19734;DHT22;10018;51.230;7.860;2022-09-28T00:19:47;8.60;99.90
19734;DHT22;10018;51.230;7.860;2022-09-28T00:22:12;8.70;99.90
19734;DHT22;10018;51.230;7.860;2022-09-28T00:24:38;8.60;99.90
19734;DHT22;10018;51.230;7.860;2022-09-28T00:27:03;8.60;99.90
19734;DHT22;10018;51.230;7.860;2022-09-28T00:29:31;8.60;99.90
19734;DHT22;10018;51.230;7.860;2022-09-28T00:31:59;8.60;99.90
19734;DHT22;10018;51.230;7.860;2022-09-28T00:34:37;8.60;99.90
19734;DHT22;10018;51.230;7.860;2022-09-28T00:37:05;8.60;99.90
19734;DHT22;10018;51.230;7.860;2022-09-28T00:39:33;8.60;99.90
19734;DHT22;10018;51.230;7.860;2022-09-28T00:42:01;8.60;99.90
19734;DHT22;10018;51.230;7.860;2022-09-28T00:44:54;8.60;99.90
19734;DHT22;10018;51.230;7.860;2022-09-28T00:47:45;8.70;99.90
19734;DHT22;10018;51.230;7.860;2022-09-28T00:52:41;8.60;99.90
19734;DHT22;10018;51.230;7.860;2022-09-28T00:55:14;8.60;99.90
19734;DHT22;10018;51.230;7.860;2022-09-28T00:57:43;8.60;99.90
19734;DHT22;10018;51.230;7.860;2022-09-28T01:00:10;8.60;99.90
19734;DHT22;10018;51.230;7.860;2022-09-28T01:02:36;8.50;99.90
19734;DHT22;10018;51.230;7.860;2022-09-28T01:05:02;8.50;99.90
19734;DHT22;10018;51.230;7.860;2022-09-28T01:07:30;8.50;99.90
19734;DHT22;10018;51.230;7.860;2022-09-28T01:09:56;8.50;99.90
19734;DHT22;10018;51.230;7.860;2022-09-28T01:12:21;8.50;99.90
19734;DHT22;10018;51.230;7.860;2022-09-28T01:14:48;8.50;99.90
19734;DHT22;10018;51.230;7.860;2022-09-28T01:17:28;8.60;99.90
19734;DHT22;10018;51.230;7.860;2022-09-28T01:25:40;8.40;99.90
19734;DHT22;10018;51.230;7.860;2022-09-28T01:28:23;8.40;99.90
19734;DHT22;10018;51.230;7.860;2022-09-28T01:31:13;8.40;99.90
19734;DHT22;10018;51.230;7.860;2022-09-28T01:33:46;8.40;99.90
19734;DHT22;10018;51.230;7.860;2022-09-28T01:36:39;8.50;99.90
19734;DHT22;10018;51.230;7.860;2022-09-28T01:39:11;8.50;99.90
19734;DHT22;10018;51.230;7.860;2022-09-28T01:41:41;8.50;99.90
19734;DHT22;10018;51.230;7.860;2022-09-28T01:44:11;8.50;99.90
19734;DHT22;10018;51.230;7.860;2022-09-28T01:46:41;8.50;99.90
19734;DHT22;10018;51.230;7.860;2022-09-28T01:49:31;8.50;99.90
19734;DHT22;10018;51.230;7.860;2022-09-28T01:52:16;8.50;99.90
19734;DHT22;10018;51.230;7.860;2022-09-28T01:54:50;8.50;99.90
19734;DHT22;10018;51.230;7.860;2022-09-28T01:58:16;8.40;99.90
19734;DHT22;10018;51.230;7.860;2022-09-28T02:00:35;8.40;99.90
19734;DHT22;10018;51.230;7.860;2022-09-28T02:03:10;8.40;99.90
19734;DHT22;10018;51.230;7.860;2022-09-28T02:05:39;8.30;99.90
19734;DHT22;10018;51.230;7.860;2022-09-28T02:08:20;8.30;99.90
19734;DHT22;10018;51.230;7.860;2022-09-28T02:11:01;8.30;99.90
19734;DHT22;10018;51.230;7.860;2022-09-28T02:13:32;8.30;99.90
19734;DHT22;10018;51.230;7.860;2022-09-28T02:18:31;8.30;99.90
19734;DHT22;10018;51.230;7.860;2022-09-28T02:21:12;8.30;99.90
19734;DHT22;10018;51.230;7.860;2022-09-28T02:23:44;8.40;99.90
19734;DHT22;10018;51.230;7.860;2022-09-28T02:26:16;8.40;99.90
19734;DHT22;10018;51.230;7.860;2022-09-28T02:28:44;8.40;99.90
19734;DHT22;10018;51.230;7.860;2022-09-28T02:31:10;8.40;99.90
19734;DHT22;10018;51.230;7.860;2022-09-28T02:33:38;8.50;99.90
19734;DHT22;10018;51.230;7.860;2022-09-28T02:36:04;8.40;99.90
19734;DHT22;10018;51.230;7.860;2022-09-28T02:38:31;8.40;99.90
19734;DHT22;10018;51.230;7.860;2022-09-28T02:43:54;8.40;99.90
19734;DHT22;10018;51.230;7.860;2022-09-28T02:49:16;8.30;99.90
19734;DHT22;10018;51.230;7.860;2022-09-28T02:52:04;8.30;99.90
19734;DHT22;10018;51.230;7.860;2022-09-28T02:57:48;8.20;99.90
19734;DHT22;10018;51.230;7.860;2022-09-28T03:00:21;8.20;99.90
19734;DHT22;10018;51.230;7.860;2022-09-28T03:08:28;8.30;99.90
19734;DHT22;10018;51.230;7.860;2022-09-28T03:11:04;8.20;99.90
19734;DHT22;10018;51.230;7.860;2022-09-28T03:13:32;8.20;99.90
19734;DHT22;10018;51.230;7.860;2022-09-28T03:16:16;8.30;99.90
19734;DHT22;10018;51.230;7.860;2022-09-28T03:18:42;8.30;99.90
19734;DHT22;10018;51.230;7.860;2022-09-28T03:21:10;8.20;99.90
19734;DHT22;10018;51.230;7.860;2022-09-28T03:23:36;8.20;99.90
19734;DHT22;10018;51.230;7.860;2022-09-28T03:26:02;8.20;99.90
19734;DHT22;10018;51.230;7.860;2022-09-28T03:28:28;8.20;99.90
19734;DHT22;10018;51.230;7.860;2022-09-28T03:30:54;8.20;99.90
19734;DHT22;10018;51.230;7.860;2022-09-28T03:33:20;8.20;99.90
19734;DHT22;10018;51.230;7.860;2022-09-28T03:35:47;8.20;99.90
19734;DHT22;10018;51.230;7.860;2022-09-28T03:38:13;8.10;99.90
19734;DHT22;10018;51.230;7.860;2022-09-28T03:40:38;8.20;99.90
19734;DHT22;10018;51.230;7.860;2022-09-28T03:43:04;8.20;99.90
19734;DHT22;10018;51.230;7.860;2022-09-28T03:45:30;8.20;99.90
19734;DHT22;10018;51.230;7.860;2022-09-28T03:47:55;8.20;99.90
19734;DHT22;10018;51.230;7.860;2022-09-28T03:50:21;8.20;99.90
19734;DHT22;10018;51.230;7.860;2022-09-28T03:52:46;8.20;99.90
19734;DHT22;10018;51.230;7.860;2022-09-28T03:55:12;8.20;99.90
19734;DHT22;10018;51.230;7.860;2022-09-28T03:57:37;8.20;99.90
19734;DHT22;10018;51.230;7.860;2022-09-28T04:00:04;8.20;99.90
19734;DHT22;10018;51.230;7.860;2022-09-28T04:02:30;8.30;99.90
19734;DHT22;10018;51.230;7.860;2022-09-28T04:04:55;8.30;99.90
19734;DHT22;10018;51.230;7.860;2022-09-28T04:07:21;8.30;99.90
19734;DHT22;10018;51.230;7.860;2022-09-28T04:09:47;8.30;99.90
19734;DHT22;10018;51.230;7.860;2022-09-28T04:12:12;8.30;99.90
19734;DHT22;10018;51.230;7.860;2022-09-28T04:14:38;8.30;99.90
19734;DHT22;10018;51.230;7.860;2022-09-28T04:17:03;8.30;99.90
19734;DHT22;10018;51.230;7.860;2022-09-28T04:19:29;8.20;99.90
19734;DHT22;10018;51.230;7.860;2022-09-28T04:21:55;8.20;99.90
19734;DHT22;10018;51.230;7.860;2022-09-28T04:24:20;8.20;99.90
19734;DHT22;10018;51.230;7.860;2022-09-28T04:26:46;8.20;99.90
19734;DHT22;10018;51.230;7.860;2022-09-28T04:29:12;8.20;99.90
19734;DHT22;10018;51.230;7.860;2022-09-28T04:31:47;8.30;99.90
19734;DHT22;10018;51.230;7.860;2022-09-28T04:34:16;8.30;99.90
19734;DHT22;10018;51.230;7.860;2022-09-28T04:36:46;8.30;99.90
19734;DHT22;10018;51.230;7.860;2022-09-28T04:39:13;8.20;99.90
19734;DHT22;10018;51.230;7.860;2022-09-28T04:41:40;8.20;99.90
19734;DHT22;10018;51.230;7.860;2022-09-28T04:44:05;8.10;99.90
19734;DHT22;10018;51.230;7.860;2022-09-28T04:46:31;8.10;99.90
19734;DHT22;10018;51.230;7.860;2022-09-28T04:48:57;8.10;99.90
19734;DHT22;10018;51.230;7.860;2022-09-28T04:51:23;8.10;99.90
19734;DHT22;10018;51.230;7.860;2022-09-28T04:53:48;8.10;99.90
19734;DHT22;10018;51.230;7.860;2022-09-28T04:56:16;8.10;99.90
19734;DHT22;10018;51.230;7.860;2022-09-28T04:58:42;8.10;99.90
19734;DHT22;10018;51.230;7.860;2022-09-28T05:01:11;8.10;99.90
19734;DHT22;10018;51.230;7.860;2022-09-28T05:03:38;8.10;99.90
19734;DHT22;10018;51.230;7.860;2022-09-28T05:06:04;8.10;99.90
19734;DHT22;10018;51.230;7.860;2022-09-28T05:08:31;8.10;99.90
19734;DHT22;10018;51.230;7.860;2022-09-28T05:10:58;8.10;99.90
19734;DHT22;10018;51.230;7.860;2022-09-28T05:13:24;8.10;99.90
19734;DHT22;10018;51.230;7.860;2022-09-28T05:15:52;8.10;99.90
19734;DHT22;10018;51.230;7.860;2022-09-28T05:18:18;8.10;99.90
19734;DHT22;10018;51.230;7.860;2022-09-28T05:20:44;8.20;99.90
19734;DHT22;10018;51.230;7.860;2022-09-28T05:23:10;8.20;99.90
19734;DHT22;10018;51.230;7.860;2022-09-28T05:25:37;8.20;99.90
19734;DHT22;10018;51.230;7.860;2022-09-28T05:28:03;8.20;99.90
19734;DHT22;10018;51.230;7.860;2022-09-28T05:30:29;8.10;99.90
19734;DHT22;10018;51.230;7.860;2022-09-28T05:32:54;8.20;99.90
19734;DHT22;10018;51.230;7.860;2022-09-28T05:35:20;8.10;99.90
19734;DHT22;10018;51.230;7.860;2022-09-28T05:37:46;8.10;99.90
19734;DHT22;10018;51.230;7.860;2022-09-28T05:40:12;8.10;99.90
19734;DHT22;10018;51.230;7.860;2022-09-28T05:42:38;8.10;99.90
19734;DHT22;10018;51.230;7.860;2022-09-28T05:45:05;8.10;99.90
19734;DHT22;10018;51.230;7.860;2022-09-28T05:47:35;8.20;99.90
19734;DHT22;10018;51.230;7.860;2022-09-28T05:50:01;8.20;99.90
19734;DHT22;10018;51.230;7.860;2022-09-28T05:52:26;8.20;99.90
19734;DHT22;10018;51.230;7.860;2022-09-28T05:54:52;8.30;99.90
19734;DHT22;10018;51.230;7.860;2022-09-28T05:57:17;8.30;99.90
19734;DHT22;10018;51.230;7.860;2022-09-28T05:59:43;8.30;99.90
19734;DHT22;10018;51.230;7.860;2022-09-28T06:02:09;8.30;99.90
19734;DHT22;10018;51.230;7.860;2022-09-28T06:04:34;8.30;99.90
19734;DHT22;10018;51.230;7.860;2022-09-28T06:07:00;8.30;99.90
19734;DHT22;10018;51.230;7.860;2022-09-28T06:09:25;8.30;99.90
19734;DHT22;10018;51.230;7.860;2022-09-28T06:11:51;8.30;99.90
19734;DHT22;10018;51.230;7.860;2022-09-28T06:14:17;8.30;99.90
19734;DHT22;10018;51.230;7.860;2022-09-28T06:16:43;8.30;99.90
19734;DHT22;10018;51.230;7.860;2022-09-28T06:19:10;8.20;99.90
19734;DHT22;10018;51.230;7.860;2022-09-28T06:21:36;8.20;99.90
19734;DHT22;10018;51.230;7.860;2022-09-28T06:24:03;8.10;99.90
19734;DHT22;10018;51.230;7.860;2022-09-28T06:26:29;8.10;99.90
19734;DHT22;10018;51.230;7.860;2022-09-28T06:28:54;8.20;99.90
19734;DHT22;10018;51.230;7.860;2022-09-28T06:31:20;8.20;99.90
19734;DHT22;10018;51.230;7.860;2022-09-28T06:33:49;8.10;99.90
19734;DHT22;10018;51.230;7.860;2022-09-28T06:36:15;8.20;99.90
19734;DHT22;10018;51.230;7.860;2022-09-28T06:38:41;8.30;99.90
19734;DHT22;10018;51.230;7.860;2022-09-28T06:41:07;8.30;99.90
19734;DHT22;10018;51.230;7.860;2022-09-28T06:43:32;8.40;99.90
19734;DHT22;10018;51.230;7.860;2022-09-28T06:46:00;8.50;99.90
19734;DHT22;10018;51.230;7.860;2022-09-28T06:48:25;8.50;99.90
19734;DHT22;10018;51.230;7.860;2022-09-28T06:50:51;8.50;99.90
19734;DHT22;10018;51.230;7.860;2022-09-28T06:53:16;8.50;99.90
19734;DHT22;10018;51.230;7.860;2022-09-28T06:55:45;8.50;99.90
19734;DHT22;10018;51.230;7.860;2022-09-28T06:58:14;8.60;99.90
19734;DHT22;10018;51.230;7.860;2022-09-28T07:00:41;8.60;99.90
19734;DHT22;10018;51.230;7.860;2022-09-28T07:03:11;8.60;99.90
19734;DHT22;10018;51.230;7.860;2022-09-28T07:05:40;8.70;99.90
19734;DHT22;10018;51.230;7.860;2022-09-28T07:08:07;8.70;99.90
19734;DHT22;10018;51.230;7.860;2022-09-28T07:10:32;8.80;99.90
19734;DHT22;10018;51.230;7.860;2022-09-28T07:13:01;8.80;99.90
19734;DHT22;10018;51.230;7.860;2022-09-28T07:15:30;8.90;99.90
19734;DHT22;10018;51.230;7.860;2022-09-28T07:17:57;8.90;99.90
19734;DHT22;10018;51.230;7.860;2022-09-28T07:20:23;9.00;99.90
19734;DHT22;10018;51.230;7.860;2022-09-28T07:22:56;9.10;99.90
19734;DHT22;10018;51.230;7.860;2022-09-28T07:25:22;9.00;99.90
19734;DHT22;10018;51.230;7.860;2022-09-28T07:27:48;9.10;99.90
19734;DHT22;10018;51.230;7.860;2022-09-28T07:30:14;9.20;99.90
19734;DHT22;10018;51.230;7.860;2022-09-28T07:32:40;9.20;99.90
19734;DHT22;10018;51.230;7.860;2022-09-28T07:35:06;9.20;99.90
19734;DHT22;10018;51.230;7.860;2022-09-28T07:37:35;9.20;99.90
19734;DHT22;10018;51.230;7.860;2022-09-28T07:40:04;9.10;99.90
19734;DHT22;10018;51.230;7.860;2022-09-28T07:42:49;9.20;99.90
19734;DHT22;10018;51.230;7.860;2022-09-28T07:45:15;9.20;99.90
19734;DHT22;10018;51.230;7.860;2022-09-28T07:47:41;9.20;99.90
19734;DHT22;10018;51.230;7.860;2022-09-28T07:50:07;9.30;99.90
19734;DHT22;10018;51.230;7.860;2022-09-28T07:52:32;9.40;99.90
19734;DHT22;10018;51.230;7.860;2022-09-28T07:55:00;9.40;99.90
19734;DHT22;10018;51.230;7.860;2022-09-28T07:57:27;9.50;99.90
19734;DHT22;10018;51.230;7.860;2022-09-28T07:59:53;9.50;99.90
19734;DHT22;10018;51.230;7.860;2022-09-28T08:02:19;9.50;99.90
19734;DHT22;10018;51.230;7.860;2022-09-28T08:04:49;9.50;99.90
19734;DHT22;10018;51.230;7.860;2022-09-28T08:07:17;9.60;99.90
19734;DHT22;10018;51.230;7.860;2022-09-28T08:09:44;9.60;99.90
19734;DHT22;10018;51.230;7.860;2022-09-28T08:12:10;9.50;99.90
19734;DHT22;10018;51.230;7.860;2022-09-28T08:14:36;9.50;99.90
19734;DHT22;10018;51.230;7.860;2022-09-28T08:17:03;9.40;99.90
19734;DHT22;10018;51.230;7.860;2022-09-28T08:19:29;9.30;99.90
19734;DHT22;10018;51.230;7.860;2022-09-28T08:22:14;9.30;99.90
19734;DHT22;10018;51.230;7.860;2022-09-28T08:24:39;9.20;99.90
19734;DHT22;10018;51.230;7.860;2022-09-28T08:27:05;9.10;99.90
19734;DHT22;10018;51.230;7.860;2022-09-28T08:29:31;9.10;99.90
19734;DHT22;10018;51.230;7.860;2022-09-28T08:31:57;9.10;99.90
19734;DHT22;10018;51.230;7.860;2022-09-28T08:34:25;9.10;99.90
19734;DHT22;10018;51.230;7.860;2022-09-28T08:36:52;9.10;99.90
19734;DHT22;10018;51.230;7.860;2022-09-28T08:39:17;9.10;99.90
19734;DHT22;10018;51.230;7.860;2022-09-28T08:41:48;9.00;99.90
19734;DHT22;10018;51.230;7.860;2022-09-28T08:44:20;9.00;99.90
19734;DHT22;10018;51.230;7.860;2022-09-28T08:46:51;9.10;99.90
19734;DHT22;10018;51.230;7.860;2022-09-28T08:49:39;9.10;99.90
19734;DHT22;10018;51.230;7.860;2022-09-28T08:52:12;9.10;99.90
19734;DHT22;10018;51.230;7.860;2022-09-28T08:59:52;9.10;99.90
19734;DHT22;10018;51.230;7.860;2022-09-28T09:02:38;9.20;99.90
19734;DHT22;10018;51.230;7.860;2022-09-28T09:05:08;9.20;99.90
19734;DHT22;10018;51.230;7.860;2022-09-28T09:07:55;9.20;99.90
19734;DHT22;10018;51.230;7.860;2022-09-28T09:10:51;9.30;99.90
19734;DHT22;10018;51.230;7.860;2022-09-28T09:16:43;9.40;99.90
19734;DHT22;10018;51.230;7.860;2022-09-28T09:19:21;9.50;99.90
19734;DHT22;10018;51.230;7.860;2022-09-28T09:22:05;9.50;99.90
19734;DHT22;10018;51.230;7.860;2022-09-28T09:24:48;9.50;99.90
19734;DHT22;10018;51.230;7.860;2022-09-28T09:27:41;9.50;99.90
19734;DHT22;10018;51.230;7.860;2022-09-28T09:30:19;9.40;99.90
19734;DHT22;10018;51.230;7.860;2022-09-28T09:36:16;9.30;99.90
19734;DHT22;10018;51.230;7.860;2022-09-28T09:41:59;9.30;99.90
19734;DHT22;10018;51.230;7.860;2022-09-28T09:47:21;9.40;99.90
19734;DHT22;10018;51.230;7.860;2022-09-28T09:49:49;9.50;99.90
19734;DHT22;10018;51.230;7.860;2022-09-28T09:52:25;9.50;99.90
19734;DHT22;10018;51.230;7.860;2022-09-28T09:55:01;9.50;99.90
19734;DHT22;10018;51.230;7.860;2022-09-28T09:57:37;9.60;99.90
19734;DHT22;10018;51.230;7.860;2022-09-28T10:00:13;9.60;99.90
19734;DHT22;10018;51.230;7.860;2022-09-28T10:02:39;9.60;99.90
19734;DHT22;10018;51.230;7.860;2022-09-28T10:05:20;9.60;99.90
19734;DHT22;10018;51.230;7.860;2022-09-28T10:08:09;9.50;99.90
19734;DHT22;10018;51.230;7.860;2022-09-28T10:10:48;9.50;99.90
19734;DHT22;10018;51.230;7.860;2022-09-28T10:13:14;9.50;99.90
19734;DHT22;10018;51.230;7.860;2022-09-28T10:15:41;9.50;99.90
19734;DHT22;10018;51.230;7.860;2022-09-28T10:18:12;9.60;99.90
19734;DHT22;10018;51.230;7.860;2022-09-28T10:20:40;9.70;99.90
19734;DHT22;10018;51.230;7.860;2022-09-28T10:23:14;9.90;99.90
19734;DHT22;10018;51.230;7.860;2022-09-28T10:25:42;10.00;99.90
19734;DHT22;10018;51.230;7.860;2022-09-28T10:28:16;10.00;99.90
19734;DHT22;10018;51.230;7.860;2022-09-28T10:30:43;10.20;99.90
19734;DHT22;10018;51.230;7.860;2022-09-28T10:33:32;10.30;99.90
19734;DHT22;10018;51.230;7.860;2022-09-28T10:36:00;10.40;99.90
19734;DHT22;10018;51.230;7.860;2022-09-28T10:38:27;10.50;99.90
19734;DHT22;10018;51.230;7.860;2022-09-28T10:40:57;10.50;99.90
19734;DHT22;10018;51.230;7.860;2022-09-28T10:43:32;10.50;99.90
19734;DHT22;10018;51.230;7.860;2022-09-28T10:46:22;10.60;99.90
19734;DHT22;10018;51.230;7.860;2022-09-28T10:49:05;10.60;99.90
19734;DHT22;10018;51.230;7.860;2022-09-28T10:54:04;10.60;99.90
19734;DHT22;10018;51.230;7.860;2022-09-28T10:56:35;10.60;99.90
19734;DHT22;10018;51.230;7.860;2022-09-28T10:59:01;10.70;99.90
19734;DHT22;10018;51.230;7.860;2022-09-28T11:01:32;10.70;99.90
19734;DHT22;10018;51.230;7.860;2022-09-28T11:04:03;10.60;99.90
19734;DHT22;10018;51.230;7.860;2022-09-28T11:06:37;10.40;99.90
19734;DHT22;10018;51.230;7.860;2022-09-28T11:09:17;10.40;99.90
19734;DHT22;10018;51.230;7.860;2022-09-28T11:11:44;10.40;99.90
19734;DHT22;10018;51.230;7.860;2022-09-28T11:14:32;10.50;99.90
19734;DHT22;10018;51.230;7.860;2022-09-28T11:22:44;10.30;99.90
19734;DHT22;10018;51.230;7.860;2022-09-28T11:25:23;10.30;99.90
19734;DHT22;10018;51.230;7.860;2022-09-28T11:32:50;10.40;99.90
19734;DHT22;10018;51.230;7.860;2022-09-28T11:35:22;10.40;99.90
19734;DHT22;10018;51.230;7.860;2022-09-28T11:38:01;10.50;99.90
19734;DHT22;10018;51.230;7.860;2022-09-28T11:40:45;10.50;99.90
19734;DHT22;10018;51.230;7.860;2022-09-28T11:46:06;10.30;99.90
19734;DHT22;10018;51.230;7.860;2022-09-28T11:48:48;10.30;99.90
19734;DHT22;10018;51.230;7.860;2022-09-28T11:51:26;10.30;99.90
19734;DHT22;10018;51.230;7.860;2022-09-28T11:54:18;10.30;99.90
19734;DHT22;10018;51.230;7.860;2022-09-28T11:56:47;10.30;99.90
19734;DHT22;10018;51.230;7.860;2022-09-28T11:59:25;10.30;99.90
19734;DHT22;10018;51.230;7.860;2022-09-28T12:04:40;10.20;99.90
19734;DHT22;10018;51.230;7.860;2022-09-28T12:07:13;10.30;99.90
19734;DHT22;10018;51.230;7.860;2022-09-28T12:12:28;10.60;99.90
19734;DHT22;10018;51.230;7.860;2022-09-28T12:15:02;10.80;99.90
19734;DHT22;10018;51.230;7.860;2022-09-28T12:17:47;11.00;99.90
19734;DHT22;10018;51.230;7.860;2022-09-28T12:20:27;11.20;99.90
19734;DHT22;10018;51.230;7.860;2022-09-28T12:25:55;11.10;99.90
19734;DHT22;10018;51.230;7.860;2022-09-28T12:30:57;11.20;99.90
19734;DHT22;10018;51.230;7.860;2022-09-28T12:33:23;11.30;99.90
19734;DHT22;10018;51.230;7.860;2022-09-28T12:47:24;11.30;99.90
19734;DHT22;10018;51.230;7.860;2022-09-28T12:58:00;11.20;99.90
19734;DHT22;10018;51.230;7.860;2022-09-28T13:07:09;11.30;99.90
19734;DHT22;10018;51.230;7.860;2022-09-28T13:09:22;11.20;99.90
19734;DHT22;10018;51.230;7.860;2022-09-28T13:12:06;11.30;99.90
19734;DHT22;10018;51.230;7.860;2022-09-28T13:15:16;11.30;99.90
19734;DHT22;10018;51.230;7.860;2022-09-28T13:20:25;11.40;99.90
19734;DHT22;10018;51.230;7.860;2022-09-28T13:23:16;11.50;99.90
19734;DHT22;10018;51.230;7.860;2022-09-28T13:26:29;11.70;99.90
19734;DHT22;10018;51.230;7.860;2022-09-28T13:28:49;11.90;99.90
19734;DHT22;10018;51.230;7.860;2022-09-28T13:31:22;12.10;99.90
19734;DHT22;10018;51.230;7.860;2022-09-28T13:33:51;12.20;99.90
19734;DHT22;10018;51.230;7.860;2022-09-28T13:38:56;12.10;99.90
19734;DHT22;10018;51.230;7.860;2022-09-28T13:41:32;11.90;99.90
19734;DHT22;10018;51.230;7.860;2022-09-28T13:49:59;11.60;99.90
19734;DHT22;10018;51.230;7.860;2022-09-28T13:52:50;11.70;99.90
19734;DHT22;10018;51.230;7.860;2022-09-28T13:55:36;11.70;99.90
19734;DHT22;10018;51.230;7.860;2022-09-28T14:01:02;11.60;99.90
19734;DHT22;10018;51.230;7.860;2022-09-28T14:04:12;11.70;99.90
19734;DHT22;10018;51.230;7.860;2022-09-28T14:06:41;11.80;99.90
19734;DHT22;10018;51.230;7.860;2022-09-28T14:12:00;12.00;99.90
19734;DHT22;10018;51.230;7.860;2022-09-28T14:14:46;12.10;99.90
19734;DHT22;10018;51.230;7.860;2022-09-28T14:19:58;12.90;99.90
19734;DHT22;10018;51.230;7.860;2022-09-28T14:25:14;14.80;99.90
19734;DHT22;10018;51.230;7.860;2022-09-28T14:30:24;13.90;99.90
19734;DHT22;10018;51.230;7.860;2022-09-28T14:32:59;13.70;99.90
19734;DHT22;10018;51.230;7.860;2022-09-28T14:35:40;13.40;99.90
19734;DHT22;10018;51.230;7.860;2022-09-28T14:54:23;12.10;99.90
19734;DHT22;10018;51.230;7.860;2022-09-28T14:59:23;11.80;99.90
19734;DHT22;10018;51.230;7.860;2022-09-28T15:01:54;11.80;99.90
19734;DHT22;10018;51.230;7.860;2022-09-28T15:04:24;11.70;99.90
19734;DHT22;10018;51.230;7.860;2022-09-28T15:06:52;11.60;99.90
19734;DHT22;10018;51.230;7.860;2022-09-28T15:09:33;11.60;99.90
19734;DHT22;10018;51.230;7.860;2022-09-28T15:12:15;11.70;99.90
19734;DHT22;10018;51.230;7.860;2022-09-28T15:14:46;11.80;99.90
19734;DHT22;10018;51.230;7.860;2022-09-28T15:17:20;11.90;99.90
19734;DHT22;10018;51.230;7.860;2022-09-28T15:20:14;11.90;99.90
19734;DHT22;10018;51.230;7.860;2022-09-28T15:22:45;12.00;99.90
19734;DHT22;10018;51.230;7.860;2022-09-28T15:25:19;12.20;99.90
19734;DHT22;10018;51.230;7.860;2022-09-28T15:27:50;12.80;99.90
19734;DHT22;10018;51.230;7.860;2022-09-28T15:30:31;13.90;99.90
19734;DHT22;10018;51.230;7.860;2022-09-28T15:32:58;14.80;99.90
19734;DHT22;10018;51.230;7.860;2022-09-28T15:35:48;15.10;99.90
19734;DHT22;10018;51.230;7.860;2022-09-28T15:38:18;15.20;99.90
19734;DHT22;10018;51.230;7.860;2022-09-28T15:40:44;14.70;99.90
19734;DHT22;10018;51.230;7.860;2022-09-28T15:43:26;14.30;99.90
19734;DHT22;10018;51.230;7.860;2022-09-28T15:46:11;13.80;99.90
19734;DHT22;10018;51.230;7.860;2022-09-28T15:48:57;13.30;99.90
19734;DHT22;10018;51.230;7.860;2022-09-28T15:51:24;12.60;99.90
19734;DHT22;10018;51.230;7.860;2022-09-28T15:54:09;12.30;99.90
19734;DHT22;10018;51.230;7.860;2022-09-28T15:56:57;11.90;99.90
19734;DHT22;10018;51.230;7.860;2022-09-28T15:59:34;11.60;99.90
19734;DHT22;10018;51.230;7.860;2022-09-28T16:02:21;11.40;99.90
19734;DHT22;10018;51.230;7.860;2022-09-28T16:04:55;11.40;99.90
19734;DHT22;10018;51.230;7.860;2022-09-28T16:07:38;11.30;99.90
19734;DHT22;10018;51.230;7.860;2022-09-28T16:15:14;11.10;99.90
19734;DHT22;10018;51.230;7.860;2022-09-28T16:17:42;11.00;99.90
19734;DHT22;10018;51.230;7.860;2022-09-28T16:22:59;11.00;99.90
19734;DHT22;10018;51.230;7.860;2022-09-28T16:25:31;10.90;99.90
19734;DHT22;10018;51.230;7.860;2022-09-28T16:27:58;10.80;99.90
19734;DHT22;10018;51.230;7.860;2022-09-28T16:30:28;10.80;99.90
19734;DHT22;10018;51.230;7.860;2022-09-28T16:33:02;10.70;99.90
19734;DHT22;10018;51.230;7.860;2022-09-28T16:35:49;10.70;99.90
19734;DHT22;10018;51.230;7.860;2022-09-28T16:38:16;10.60;99.90
19734;DHT22;10018;51.230;7.860;2022-09-28T16:40:46;10.50;99.90
19734;DHT22;10018;51.230;7.860;2022-09-28T16:43:25;10.50;99.90
19734;DHT22;10018;51.230;7.860;2022-09-28T16:45:53;10.40;99.90
19734;DHT22;10018;51.230;7.860;2022-09-28T16:48:24;10.40;99.90
19734;DHT22;10018;51.230;7.860;2022-09-28T16:50:50;10.30;99.90
19734;DHT22;10018;51.230;7.860;2022-09-28T16:53:16;10.30;99.90
19734;DHT22;10018;51.230;7.860;2022-09-28T16:56:01;10.40;99.90
19734;DHT22;10018;51.230;7.860;2022-09-28T16:58:27;10.40;99.90
19734;DHT22;10018;51.230;7.860;2022-09-28T17:00:53;10.40;99.90
19734;DHT22;10018;51.230;7.860;2022-09-28T17:03:20;10.40;99.90
19734;DHT22;10018;51.230;7.860;2022-09-28T17:05:48;10.40;99.90
19734;DHT22;10018;51.230;7.860;2022-09-28T17:08:16;10.40;99.90
19734;DHT22;10018;51.230;7.860;2022-09-28T17:10:43;10.30;99.90
19734;DHT22;10018;51.230;7.860;2022-09-28T17:13:10;10.20;99.90
19734;DHT22;10018;51.230;7.860;2022-09-28T17:15:37;10.20;99.90
19734;DHT22;10018;51.230;7.860;2022-09-28T17:18:04;10.10;99.90
19734;DHT22;10018;51.230;7.860;2022-09-28T17:20:31;10.20;99.90
19734;DHT22;10018;51.230;7.860;2022-09-28T17:22:56;10.20;99.90
19734;DHT22;10018;51.230;7.860;2022-09-28T17:25:23;10.20;99.90
19734;DHT22;10018;51.230;7.860;2022-09-28T17:27:49;10.30;99.90
19734;DHT22;10018;51.230;7.860;2022-09-28T17:30:16;10.30;99.90
19734;DHT22;10018;51.230;7.860;2022-09-28T17:32:42;10.20;99.90
19734;DHT22;10018;51.230;7.860;2022-09-28T17:35:12;10.20;99.90
19734;DHT22;10018;51.230;7.860;2022-09-28T17:37:38;10.10;99.90
19734;DHT22;10018;51.230;7.860;2022-09-28T17:40:25;10.10;99.90
19734;DHT22;10018;51.230;7.860;2022-09-28T17:42:53;10.10;99.90
19734;DHT22;10018;51.230;7.860;2022-09-28T17:45:20;10.10;99.90
19734;DHT22;10018;51.230;7.860;2022-09-28T17:47:46;10.10;99.90
19734;DHT22;10018;51.230;7.860;2022-09-28T17:50:23;10.10;99.90
19734;DHT22;10018;51.230;7.860;2022-09-28T17:52:50;10.10;99.90
19734;DHT22;10018;51.230;7.860;2022-09-28T17:55:25;10.10;99.90
19734;DHT22;10018;51.230;7.860;2022-09-28T17:57:56;10.10;99.90
19734;DHT22;10018;51.230;7.860;2022-09-28T18:00:22;10.00;99.90
19734;DHT22;10018;51.230;7.860;2022-09-28T18:02:52;10.00;99.90
19734;DHT22;10018;51.230;7.860;2022-09-28T18:05:18;10.00;99.90
19734;DHT22;10018;51.230;7.860;2022-09-28T18:07:45;9.90;99.90
19734;DHT22;10018;51.230;7.860;2022-09-28T18:10:13;9.80;99.90
19734;DHT22;10018;51.230;7.860;2022-09-28T18:12:39;9.70;99.90
19734;DHT22;10018;51.230;7.860;2022-09-28T18:15:04;9.60;99.90
19734;DHT22;10018;51.230;7.860;2022-09-28T18:17:30;9.60;99.90
19734;DHT22;10018;51.230;7.860;2022-09-28T18:19:56;9.50;99.90
19734;DHT22;10018;51.230;7.860;2022-09-28T18:22:21;9.50;99.90
19734;DHT22;10018;51.230;7.860;2022-09-28T18:24:47;9.50;99.90
19734;DHT22;10018;51.230;7.860;2022-09-28T18:27:13;9.40;99.90
19734;DHT22;10018;51.230;7.860;2022-09-28T18:29:38;9.30;99.90
19734;DHT22;10018;51.230;7.860;2022-09-28T18:32:04;9.30;99.90